Etusivu
METAR-TAF:

METAR-TAF

Lentoasemat :

Kruger Mpumalangan kansainvälinen lentoasema

Krugerin luonnonpuisto, Etelä-Afrikka

Leveyspiiri: 25-23-00S, Pituuspiiri: 31-06-20E, korkeus merenpinnasta: 862 m

Tämänhetkinen sää

Tämä raportti tehtiin 59 minuuttia sitten, kello 10.00 UTC
Tuuli 2 kn pohjoisesta
Lämpötila 18°C
Kosteus 77%
Ilmanpaine 1020 hPa
Näkyvyys 10 km tai enemmän
Hajanaisia pilviä 2000 ft:n korkeudessa
Hajonneita pilviä 3000 ft:n korkeudessa

METAR: FAKN 061000Z 35002KT 9999 SCT020 BKN030 18/14 Q1020 NOSIG

Aika: 12:59 (10:59 UTC)

Sääennuste

Tämä raportti tehtiin 1 tunti ja 59 minuuttia sitten, kello 09.00 UTC
Ennuste voimassa 06. päivästä klo 10 UTC - 06. päivään klo 18 UTC
Tuuli 3 kn eri suunnista
Näkyvyys 10 km tai enemmän
Hajonneita pilviä 2500 ft:n korkeudessa

TAF: FAKN 060900Z 0610/0618 VRB03KT 9999 BKN025 TX23/0612Z TN21/0618Z

Säähavainnot ja -ennusteet yli 4000 lentoasemalta (METAR- ja TAF-raportit).

Käytössä olevat sääasemat on merkitty karttaan keltaisilla ja punaisilla pisteillä.

Aseta hiiri pisteen päälle nähdäksesi sääaseman nimen.

Klikkaa sitten nähdäksesi säähavainnot ja -ennusteet.

Kartan vaihtaminen: klikkaa mustalla rastilla varustettuja vihreitä pisteitä, niin voit zoomata sisään; viivalla varustettua vihreää pistettä, niin voit zoomata ulos tai vihreitä nuolia, niin pääset viereisille kartoille.


METAR-TAF: